createdAt,value
2016-05-30T00:00:57.172Z,0
2016-05-30T00:01:57.174Z,0
2016-05-30T00:02:57.208Z,0
2016-05-30T00:03:57.180Z,0
2016-05-30T00:04:57.183Z,0
2016-05-30T00:05:57.185Z,0
2016-05-30T00:06:57.485Z,0
2016-05-30T00:07:57.049Z,0
2016-05-30T00:08:57.193Z,0
2016-05-30T00:09:57.196Z,0
2016-05-30T00:10:57.199Z,0
2016-05-30T00:11:57.185Z,0
2016-05-30T00:12:57.048Z,0
2016-05-30T00:13:57.207Z,0
2016-05-30T00:14:57.193Z,0
2016-05-30T00:15:57.040Z,0
2016-05-30T00:16:57.199Z,0
2016-05-30T00:17:57.061Z,0
2016-05-30T00:18:57.189Z,0
2016-05-30T00:19:57.192Z,0
2016-05-30T00:20:56.897Z,0
2016-05-30T00:21:57.884Z,0
2016-05-30T00:22:57.200Z,0
2016-05-30T00:23:57.202Z,0
2016-05-30T00:24:57.205Z,0
2016-05-30T00:25:57.207Z,0
2016-05-30T00:26:57.210Z,0
2016-05-30T00:27:57.214Z,0
2016-05-30T00:28:57.059Z,0
2016-05-30T00:29:57.234Z,0
2016-05-30T00:30:57.205Z,0
2016-05-30T00:31:57.208Z,0
2016-05-30T00:32:57.226Z,0
2016-05-30T00:33:57.229Z,0
2016-05-30T00:34:57.216Z,0
2016-05-30T00:35:57.203Z,0
2016-05-30T00:36:57.285Z,0
2016-05-30T00:37:57.240Z,0
2016-05-30T00:38:57.226Z,0
2016-05-30T00:39:57.074Z,0
2016-05-30T00:40:57.233Z,0
2016-05-30T00:41:57.235Z,0
2016-05-30T00:42:57.066Z,0
2016-05-30T00:43:57.224Z,0
2016-05-30T00:44:57.227Z,0
2016-05-30T00:45:57.230Z,0
2016-05-30T00:46:57.233Z,0
2016-05-30T00:47:57.235Z,0
2016-05-30T00:48:57.238Z,0
2016-05-30T00:49:57.226Z,0
2016-05-30T00:50:57.259Z,0
2016-05-30T00:51:56.778Z,0
2016-05-30T00:52:57.092Z,0
2016-05-30T00:53:57.251Z,0
2016-05-30T00:54:57.254Z,0
2016-05-30T00:55:57.086Z,0
2016-05-30T00:56:57.103Z,0
2016-05-30T00:57:57.262Z,0
2016-05-30T00:58:57.109Z,0
2016-05-30T00:59:57.252Z,0
2016-05-30T01:00:57.239Z,0
2016-05-30T01:01:57.272Z,0
2016-05-30T01:02:57.275Z,0
2016-05-30T01:03:57.263Z,0
2016-05-30T01:04:57.250Z,0
2016-05-30T01:05:57.096Z,0
2016-05-30T01:06:57.177Z,0
2016-05-30T01:07:57.258Z,0
2016-05-30T01:08:57.260Z,0
2016-05-30T01:09:57.248Z,0
2016-05-30T01:10:57.250Z,0
2016-05-30T01:11:57.268Z,0
2016-05-30T01:12:57.256Z,0
2016-05-30T01:13:57.259Z,0
2016-05-30T01:14:57.276Z,0
2016-05-30T01:15:57.265Z,0
2016-05-30T01:16:57.110Z,0
2016-05-30T01:17:57.129Z,0
2016-05-30T01:18:57.272Z,0
2016-05-30T01:19:57.275Z,0
2016-05-30T01:20:57.121Z,0
2016-05-30T01:21:57.906Z,0
2016-05-30T01:22:57.267Z,0
2016-05-30T01:23:57.270Z,0
2016-05-30T01:24:57.289Z,0
2016-05-30T01:25:57.260Z,0
2016-05-30T01:26:57.278Z,0
2016-05-30T01:27:57.125Z,0
2016-05-30T01:28:57.283Z,0
2016-05-30T01:29:57.286Z,0
2016-05-30T01:30:57.289Z,0
2016-05-30T01:31:57.291Z,0
2016-05-30T01:32:57.294Z,0
2016-05-30T01:33:57.296Z,0
2016-05-30T01:34:57.284Z,0
2016-05-30T01:35:56.974Z,0
2016-05-30T01:36:57.305Z,0
2016-05-30T01:37:57.291Z,0
2016-05-30T01:38:57.310Z,0
2016-05-30T01:39:57.313Z,0
2016-05-30T01:40:57.316Z,0
2016-05-30T01:41:57.302Z,0
2016-05-30T01:42:57.305Z,0
2016-05-30T01:43:57.308Z,0
2016-05-30T01:44:57.295Z,0
2016-05-30T01:45:57.298Z,0
2016-05-30T01:46:57.300Z,0
2016-05-30T01:47:57.146Z,0
2016-05-30T01:48:57.149Z,0
2016-05-30T01:49:57.293Z,0
2016-05-30T01:50:57.311Z,0
2016-05-30T01:51:57.845Z,0
2016-05-30T01:52:57.160Z,0
2016-05-30T01:53:57.006Z,0
2016-05-30T01:54:57.306Z,0
2016-05-30T01:55:57.324Z,0
2016-05-30T01:56:57.170Z,0
2016-05-30T01:57:57.314Z,0
2016-05-30T01:58:57.317Z,0
2016-05-30T01:59:57.319Z,0
2016-05-30T02:00:57.167Z,0
2016-05-30T02:01:57.309Z,0
2016-05-30T02:02:57.327Z,0
2016-05-30T02:03:57.330Z,0
2016-05-30T02:04:57.317Z,0
2016-05-30T02:05:57.336Z,0
2016-05-30T02:06:57.027Z,0
2016-05-30T02:07:57.186Z,0
2016-05-30T02:08:57.343Z,0
2016-05-30T02:09:57.331Z,0
2016-05-30T02:10:57.333Z,0
2016-05-30T02:11:57.024Z,0
2016-05-30T02:12:57.324Z,0
2016-05-30T02:13:57.326Z,0
2016-05-30T02:14:57.329Z,0
2016-05-30T02:15:57.332Z,0
2016-05-30T02:16:57.179Z,0
2016-05-30T02:17:57.337Z,0
2016-05-30T02:18:57.340Z,0
2016-05-30T02:19:57.187Z,0
2016-05-30T02:20:57.189Z,0
2016-05-30T02:21:57.457Z,0
2016-05-30T02:22:57.350Z,0
2016-05-30T02:23:57.337Z,0
2016-05-30T02:24:57.200Z,0
2016-05-30T02:25:57.187Z,0
2016-05-30T02:26:57.345Z,0
2016-05-30T02:27:57.364Z,0
2016-05-30T02:28:57.195Z,0
2016-05-30T02:29:57.197Z,0
2016-05-30T02:30:57.356Z,0
2016-05-30T02:31:57.358Z,0
2016-05-30T02:32:57.190Z,0
2016-05-30T02:33:57.208Z,0
2016-05-30T02:34:57.367Z,0
2016-05-30T02:35:57.354Z,0
2016-05-30T02:36:57.403Z,0
2016-05-30T02:37:57.360Z,0
2016-05-30T02:38:57.218Z,0
2016-05-30T02:39:57.405Z,0
2016-05-30T02:40:57.449Z,0
2016-05-30T02:41:57.307Z,0
2016-05-30T02:42:57.337Z,0
2016-05-30T02:43:57.186Z,0
2016-05-30T02:44:57.371Z,0
2016-05-30T02:45:57.540Z,0
2016-05-30T02:46:57.536Z,0
2016-05-30T02:47:57.548Z,0
2016-05-30T02:48:57.574Z,0
2016-05-30T02:49:57.563Z,0
2016-05-30T02:50:57.554Z,0
2016-05-30T02:51:57.951Z,0
2016-05-30T02:52:57.566Z,0
2016-05-30T02:53:57.571Z,0
2016-05-30T02:54:57.591Z,0
2016-05-30T02:55:57.564Z,0
2016-05-30T02:56:57.599Z,0
2016-05-30T02:57:57.587Z,0
2016-05-30T02:58:57.590Z,0
2016-05-30T02:59:57.594Z,0
2016-05-30T03:00:57.583Z,0
2016-05-30T03:01:57.600Z,0
2016-05-30T03:02:57.432Z,0
2016-05-30T03:03:57.451Z,0
2016-05-30T03:04:57.595Z,0
2016-05-30T03:05:57.613Z,0
2016-05-30T03:06:57.756Z,0
2016-05-30T03:07:57.649Z,0
2016-05-30T03:08:57.449Z,0
2016-05-30T03:09:57.609Z,0
2016-05-30T03:10:57.611Z,0
2016-05-30T03:11:57.614Z,0
2016-05-30T03:12:57.616Z,0
2016-05-30T03:13:57.462Z,0
2016-05-30T03:14:57.606Z,0
2016-05-30T03:15:57.640Z,4
2016-05-30T03:16:57.611Z,4
2016-05-30T03:17:57.458Z,4
2016-05-30T03:18:57.616Z,4
2016-05-30T03:19:57.603Z,4
2016-05-30T03:20:57.606Z,4
2016-05-30T03:21:57.968Z,4
2016-05-30T03:22:57.471Z,4
2016-05-30T03:23:57.614Z,8
2016-05-30T03:24:57.617Z,8
2016-05-30T03:25:57.479Z,8
2016-05-30T03:26:57.465Z,4
2016-05-30T03:27:57.610Z,8
2016-05-30T03:28:57.627Z,8
2016-05-30T03:29:57.459Z,8
2016-05-30T03:30:57.632Z,12
2016-05-30T03:31:57.635Z,8
2016-05-30T03:32:57.482Z,12
2016-05-30T03:33:57.625Z,12
2016-05-30T03:34:57.472Z,12
2016-05-30T03:35:57.334Z,12
2016-05-30T03:36:57.493Z,12
2016-05-30T03:37:57.481Z,16
2016-05-30T03:38:57.624Z,16
2016-05-30T03:39:57.625Z,12
2016-05-30T03:40:57.473Z,16
2016-05-30T03:41:57.632Z,20
2016-05-30T03:42:57.634Z,20
2016-05-30T03:43:57.653Z,20
2016-05-30T03:44:57.640Z,24
2016-05-30T03:45:57.345Z,28
2016-05-30T03:46:57.645Z,32
2016-05-30T03:47:57.491Z,28
2016-05-30T03:48:57.635Z,28
2016-05-30T03:49:57.653Z,32
2016-05-30T03:50:57.656Z,36
2016-05-30T03:51:59.439Z,40
2016-05-30T03:52:57.505Z,40
2016-05-30T03:53:57.648Z,40
2016-05-30T03:54:57.635Z,36
2016-05-30T03:55:57.497Z,40
2016-05-30T03:56:57.641Z,44
2016-05-30T03:57:57.643Z,48
2016-05-30T03:58:57.646Z,52
2016-05-30T03:59:57.493Z,52
2016-05-30T04:00:57.510Z,56
2016-05-30T04:01:57.670Z,64
2016-05-30T04:02:57.656Z,68
2016-05-30T04:03:57.504Z,72
2016-05-30T04:04:57.662Z,68
2016-05-30T04:05:57.649Z,76
2016-05-30T04:06:57.511Z,80
2016-05-30T04:07:57.654Z,88
2016-05-30T04:08:57.501Z,92
2016-05-30T04:09:57.504Z,104
2016-05-30T04:10:57.679Z,116
2016-05-30T04:11:57.665Z,104
2016-05-30T04:12:57.667Z,108
2016-05-30T04:13:57.671Z,120
2016-05-30T04:14:57.673Z,136
2016-05-30T04:15:57.676Z,152
2016-05-30T04:16:57.679Z,152
2016-05-30T04:17:57.697Z,156
2016-05-30T04:18:57.669Z,152
2016-05-30T04:19:57.703Z,144
2016-05-30T04:20:57.533Z,140
2016-05-30T04:21:57.958Z,156
2016-05-30T04:22:57.680Z,152
2016-05-30T04:23:57.682Z,172
2016-05-30T04:24:57.685Z,160
2016-05-30T04:25:57.687Z,168
2016-05-30T04:26:57.690Z,200
2016-05-30T04:27:57.677Z,248
2016-05-30T04:28:57.679Z,264
2016-05-30T04:29:57.682Z,260
2016-05-30T04:30:57.701Z,304
2016-05-30T04:31:57.688Z,304
2016-05-30T04:32:57.534Z,312
2016-05-30T04:33:57.537Z,344
2016-05-30T04:34:57.695Z,328
2016-05-30T04:35:57.542Z,316
2016-05-30T04:36:58.186Z,300
2016-05-30T04:37:57.704Z,292
2016-05-30T04:38:57.690Z,328
2016-05-30T04:39:57.537Z,364
2016-05-30T04:40:57.712Z,400
2016-05-30T04:41:57.698Z,400
2016-05-30T04:42:57.702Z,420
2016-05-30T04:43:57.548Z,432
2016-05-30T04:44:57.706Z,464
2016-05-30T04:45:57.710Z,472
2016-05-30T04:46:57.541Z,516
2016-05-30T04:47:57.559Z,564
2016-05-30T04:48:57.562Z,540
2016-05-30T04:49:57.549Z,612
2016-05-30T04:50:57.708Z,652
2016-05-30T04:51:58.367Z,688
2016-05-30T04:52:57.713Z,692
2016-05-30T04:53:57.700Z,684
2016-05-30T04:54:57.578Z,708
2016-05-30T04:55:57.565Z,744
2016-05-30T04:56:57.708Z,716
2016-05-30T04:57:57.711Z,716
2016-05-30T04:58:57.573Z,800
2016-05-30T04:59:57.560Z,820
2016-05-30T05:00:57.719Z,788
2016-05-30T05:01:57.721Z,772
2016-05-30T05:02:57.724Z,792
2016-05-30T05:03:57.712Z,836
2016-05-30T05:04:57.573Z,860
2016-05-30T05:05:57.732Z,872
2016-05-30T05:06:58.032Z,948
2016-05-30T05:07:57.737Z,1004
2016-05-30T05:08:57.568Z,1044
2016-05-30T05:09:57.728Z,1016
2016-05-30T05:10:57.730Z,900
2016-05-30T05:11:57.733Z,988
2016-05-30T05:12:57.736Z,992
2016-05-30T05:13:57.738Z,960
2016-05-30T05:14:57.741Z,952
2016-05-30T05:15:57.728Z,956
2016-05-30T05:16:58.700Z,996
2016-05-30T05:17:57.749Z,1056
2016-05-30T05:18:57.736Z,1124
2016-05-30T05:19:57.583Z,1124
2016-05-30T05:20:57.742Z,1248
2016-05-30T05:21:58.011Z,1328
2016-05-30T05:22:57.747Z,1404
2016-05-30T05:23:57.578Z,1440
2016-05-30T05:24:57.752Z,1448
2016-05-30T05:25:57.599Z,1452
2016-05-30T05:26:57.742Z,1480
2016-05-30T05:27:57.745Z,1416
2016-05-30T05:28:57.763Z,1372
2016-05-30T05:29:57.749Z,1304
2016-05-30T05:30:57.597Z,1176
2016-05-30T05:31:57.599Z,1196
2016-05-30T05:32:57.743Z,1248
2016-05-30T05:33:57.745Z,1232
2016-05-30T05:34:57.748Z,1248
2016-05-30T05:35:57.751Z,1216
2016-05-30T05:36:57.784Z,1232
2016-05-30T05:37:57.771Z,1244
2016-05-30T05:38:57.759Z,1248
2016-05-30T05:39:57.761Z,1276
2016-05-30T05:40:57.765Z,1400
2016-05-30T05:41:57.782Z,1424
2016-05-30T05:42:57.770Z,1464
2016-05-30T05:43:57.772Z,1496
2016-05-30T05:44:57.775Z,1472
2016-05-30T05:45:57.777Z,1472
2016-05-30T05:46:57.765Z,1548
2016-05-30T05:47:57.783Z,1588
2016-05-30T05:48:57.770Z,1592
2016-05-30T05:49:57.773Z,1676
2016-05-30T05:50:57.619Z,1840
2016-05-30T05:51:58.027Z,1972
2016-05-30T05:52:57.624Z,2092
2016-05-30T05:53:57.643Z,2100
2016-05-30T05:54:57.786Z,1964
2016-05-30T05:55:57.633Z,1960
2016-05-30T05:56:57.791Z,1852
2016-05-30T05:57:57.794Z,1804
2016-05-30T05:58:57.781Z,1772
2016-05-30T05:59:57.784Z,1780
2016-05-30T06:00:57.802Z,1876
2016-05-30T06:01:57.649Z,1916
2016-05-30T06:02:57.636Z,1916
2016-05-30T06:03:57.638Z,1852
2016-05-30T06:04:57.797Z,1840
2016-05-30T06:05:57.644Z,1916
2016-05-30T06:06:57.568Z,1916
2016-05-30T06:07:57.805Z,1980
2016-05-30T06:08:57.824Z,2132
2016-05-30T06:09:57.795Z,2188
2016-05-30T06:10:57.798Z,2176
2016-05-30T06:11:57.801Z,2224
2016-05-30T06:12:59.100Z,2300
2016-05-30T06:13:57.650Z,2304
2016-05-30T06:14:57.653Z,2392
2016-05-30T06:15:57.811Z,2496
2016-05-30T06:16:57.814Z,2460
2016-05-30T06:18:00.114Z,2436
2016-05-30T06:18:57.850Z,2364
2016-05-30T06:19:57.822Z,2340
2016-05-30T06:20:57.825Z,2420
2016-05-30T06:21:57.827Z,2580
2016-05-30T06:22:58.470Z,2572
2016-05-30T06:23:57.364Z,2560
2016-05-30T06:24:57.835Z,2460
2016-05-30T06:25:57.838Z,2392
2016-05-30T06:26:57.669Z,2204
2016-05-30T06:27:57.843Z,2092
2016-05-30T06:28:57.830Z,2108
2016-05-30T06:29:57.833Z,2016
2016-05-30T06:30:57.835Z,1904
2016-05-30T06:31:57.838Z,1896
2016-05-30T06:33:01.826Z,1872
2016-05-30T06:33:57.860Z,1836
2016-05-30T06:34:57.832Z,1908
2016-05-30T06:35:57.693Z,1956
2016-05-30T06:36:57.852Z,2056
2016-05-30T06:37:59.917Z,2192
2016-05-30T06:38:57.529Z,2396
2016-05-30T06:39:57.845Z,2504
2016-05-30T06:40:57.847Z,2560
2016-05-30T06:41:57.851Z,2644
2016-05-30T06:42:59.353Z,2804
2016-05-30T06:43:57.856Z,3000
2016-05-30T06:44:59.217Z,3052
2016-05-30T06:45:57.861Z,2904
2016-05-30T06:46:57.864Z,2956
2016-05-30T06:47:59.037Z,2824
2016-05-30T06:48:57.870Z,2712
2016-05-30T06:49:59.168Z,2760
2016-05-30T06:50:59.249Z,2772
2016-05-30T06:51:58.628Z,2776
2016-05-30T06:52:58.770Z,2860
2016-05-30T06:53:57.882Z,3056
2016-05-30T06:54:58.386Z,3284
2016-05-30T06:55:59.622Z,3460
2016-05-30T06:56:57.734Z,3432
2016-05-30T06:58:01.003Z,3572
2016-05-30T06:58:57.927Z,3700
2016-05-30T06:59:57.883Z,3836
2016-05-30T07:00:57.901Z,3636
2016-05-30T07:01:57.888Z,3644
2016-05-30T07:03:00.328Z,3908
2016-05-30T07:03:57.894Z,3956
2016-05-30T07:04:59.663Z,4096
2016-05-30T07:06:00.665Z,4228
2016-05-30T07:06:57.668Z,4340
2016-05-30T07:07:57.748Z,4584
2016-05-30T07:08:57.610Z,4756
2016-05-30T07:09:57.753Z,4876
2016-05-30T07:10:58.741Z,4736
2016-05-30T07:11:57.915Z,4488
2016-05-30T07:12:57.745Z,4304
2016-05-30T07:13:57.905Z,4220
2016-05-30T07:15:03.439Z,3876
2016-05-30T07:15:57.910Z,4208
2016-05-30T07:16:57.913Z,4408
2016-05-30T07:18:14.963Z,4228
2016-05-30T07:18:57.762Z,4080
2016-05-30T07:19:57.796Z,4192
2016-05-30T07:20:57.923Z,4012
2016-05-30T07:21:57.942Z,3768
2016-05-30T07:22:57.789Z,3604
2016-05-30T07:23:57.775Z,3596
2016-05-30T07:25:01.512Z,3860
2016-05-30T07:25:57.781Z,4044
2016-05-30T07:26:57.784Z,4168
2016-05-30T07:28:01.802Z,3808
2016-05-30T07:28:57.945Z,3592
2016-05-30T07:29:58.542Z,3644
2016-05-30T07:30:57.966Z,3816
2016-05-30T07:31:57.969Z,4012
2016-05-30T07:32:59.127Z,4132
2016-05-30T07:33:57.958Z,4280
2016-05-30T07:35:01.118Z,4424
2016-05-30T07:35:57.964Z,4408
2016-05-30T07:36:57.669Z,4556
2016-05-30T07:37:58.704Z,4472
2016-05-30T07:38:57.956Z,4252
2016-05-30T07:39:57.803Z,4180
2016-05-30T07:40:59.555Z,4088
2016-05-30T07:41:57.965Z,3920
2016-05-30T07:43:01.732Z,3812
2016-05-30T07:43:58.002Z,3356
2016-05-30T07:45:00.004Z,3360
2016-05-30T07:45:57.990Z,3500
2016-05-30T07:46:57.837Z,3304
2016-05-30T07:47:58.434Z,3096
2016-05-30T07:48:57.984Z,3084
2016-05-30T07:49:58.001Z,3240
2016-05-30T07:50:58.020Z,3400
2016-05-30T07:51:58.788Z,3480
2016-05-30T07:52:57.994Z,3628
2016-05-30T07:53:58.012Z,3680
2016-05-30T07:54:57.859Z,3960
2016-05-30T07:55:58.003Z,4060
2016-05-30T07:56:57.864Z,4268
2016-05-30T07:57:59.945Z,4132
2016-05-30T07:58:58.010Z,3960
2016-05-30T07:59:58.013Z,4104
2016-05-30T08:00:58.031Z,4300
2016-05-30T08:01:58.019Z,4172
2016-05-30T08:02:57.739Z,4116
2016-05-30T08:03:58.024Z,4252
2016-05-30T08:04:58.042Z,4336
2016-05-30T08:05:58.029Z,4272
2016-05-30T08:06:58.938Z,4216
2016-05-30T08:07:58.035Z,4256
2016-05-30T08:08:58.053Z,4220
2016-05-30T08:09:58.055Z,4408
2016-05-30T08:10:58.058Z,4592
2016-05-30T08:11:58.045Z,4492
2016-05-30T08:12:58.048Z,4276
2016-05-30T08:13:58.066Z,4240
2016-05-30T08:14:57.913Z,3940
2016-05-30T08:15:58.057Z,4276
2016-05-30T08:16:58.074Z,4424
2016-05-30T08:17:57.905Z,5052
2016-05-30T08:18:58.064Z,4940
2016-05-30T08:19:58.067Z,4964
2016-05-30T08:20:57.754Z,4684
2016-05-30T08:21:58.588Z,3836
2016-05-30T08:22:58.013Z,4628
2016-05-30T08:23:58.077Z,4444
2016-05-30T08:24:57.920Z,3648
2016-05-30T08:25:58.098Z,4216
2016-05-30T08:26:58.070Z,4496
2016-05-30T08:27:58.620Z,4376
2016-05-30T08:28:58.104Z,4628
2016-05-30T08:29:58.091Z,4540
2016-05-30T08:30:57.937Z,4320
2016-05-30T08:31:58.111Z,4108
2016-05-30T08:32:58.099Z,3748
2016-05-30T08:33:57.961Z,3508
2016-05-30T08:34:57.964Z,4180
2016-05-30T08:35:58.122Z,4248
2016-05-30T08:36:58.141Z,4256
2016-05-30T08:37:59.271Z,4360
2016-05-30T08:38:58.177Z,4040
2016-05-30T08:39:58.118Z,5068
2016-05-30T08:40:57.980Z,5776
2016-05-30T08:41:57.967Z,5220
2016-05-30T08:43:00.909Z,5120
2016-05-30T08:43:58.128Z,4204
2016-05-30T08:44:58.147Z,3404
2016-05-30T08:45:57.837Z,3664
2016-05-30T08:46:58.152Z,5088
2016-05-30T08:47:58.139Z,5276
2016-05-30T08:48:58.157Z,4848
2016-05-30T08:49:58.145Z,4464
2016-05-30T08:50:58.148Z,4748
2016-05-30T08:51:58.041Z,4808
2016-05-30T08:52:59.311Z,4636
2016-05-30T08:53:58.170Z,5436
2016-05-30T08:54:57.861Z,5096
2016-05-30T08:55:58.020Z,3876
2016-05-30T08:56:58.179Z,3488
2016-05-30T08:57:58.026Z,3392
2016-05-30T08:58:58.185Z,3284
2016-05-30T08:59:57.719Z,3244
2016-05-30T09:00:58.033Z,3136
2016-05-30T09:01:58.192Z,3600
2016-05-30T09:03:00.105Z,3532
2016-05-30T09:03:57.698Z,2652
2016-05-30T09:04:58.045Z,2584
2016-05-30T09:05:58.203Z,3624
2016-05-30T09:06:58.269Z,4696
2016-05-30T09:07:58.224Z,5328
2016-05-30T09:08:58.056Z,5204
2016-05-30T09:09:58.199Z,5068
2016-05-30T09:10:58.201Z,5268
2016-05-30T09:11:58.063Z,5472
2016-05-30T09:12:58.050Z,5272
2016-05-30T09:13:58.210Z,5084
2016-05-30T09:14:58.227Z,5548
2016-05-30T09:15:58.074Z,5592
2016-05-30T09:16:58.232Z,4876
2016-05-30T09:17:58.235Z,4512
2016-05-30T09:18:58.082Z,4524
2016-05-30T09:19:58.257Z,4844
2016-05-30T09:20:58.244Z,4972
2016-05-30T09:21:58.324Z,5040
2016-05-30T09:22:58.093Z,5240
2016-05-30T09:23:58.251Z,5232
2016-05-30T09:24:58.254Z,5172
2016-05-30T09:25:58.101Z,5120
2016-05-30T09:26:58.104Z,6088
2016-05-30T09:27:58.262Z,6236
2016-05-30T09:28:58.264Z,6160
2016-05-30T09:29:58.268Z,6276
2016-05-30T09:30:58.317Z,6388
2016-05-30T09:31:57.961Z,6140
2016-05-30T09:32:58.276Z,5656
2016-05-30T09:33:58.279Z,5096
2016-05-30T09:34:58.281Z,5284
2016-05-30T09:35:58.284Z,5684
2016-05-30T09:36:58.255Z,6088
2016-05-30T09:37:58.150Z,6684
2016-05-30T09:38:58.308Z,7096
2016-05-30T09:39:58.310Z,7536
2016-05-30T09:40:58.313Z,8328
2016-05-30T09:41:58.316Z,7864
2016-05-30T09:42:58.334Z,7744
2016-05-30T09:43:58.150Z,9196
2016-05-30T09:44:58.324Z,9324
2016-05-30T09:45:58.326Z,8804
2016-05-30T09:46:58.314Z,8856
2016-05-30T09:47:58.176Z,9120
2016-05-30T09:48:58.318Z,8356
2016-05-30T09:49:58.338Z,7320
2016-05-30T09:50:58.356Z,7304
2016-05-30T09:51:58.593Z,7532
2016-05-30T09:52:58.345Z,8544
2016-05-30T09:53:58.348Z,8896
2016-05-30T09:54:58.350Z,8800
2016-05-30T09:55:58.369Z,7916
2016-05-30T09:56:58.356Z,7656
2016-05-30T09:57:58.375Z,6664
2016-05-30T09:58:58.361Z,6512
2016-05-30T09:59:58.380Z,6580
2016-05-30T10:00:58.383Z,5752
2016-05-30T10:01:58.386Z,5812
2016-05-30T10:02:58.216Z,5664
2016-05-30T10:03:58.406Z,6132
2016-05-30T10:04:58.394Z,6384
2016-05-30T10:05:58.397Z,6200
2016-05-30T10:06:58.461Z,5556
2016-05-30T10:07:58.245Z,5216
2016-05-30T10:08:58.264Z,5424
2016-05-30T10:09:58.408Z,5632
2016-05-30T10:10:58.394Z,6860
2016-05-30T10:11:58.413Z,7448
2016-05-30T10:12:58.416Z,8144
2016-05-30T10:13:58.433Z,7404
2016-05-30T10:14:58.264Z,6944
2016-05-30T10:15:58.283Z,7108
2016-05-30T10:16:58.426Z,8340
2016-05-30T10:17:58.460Z,9244
2016-05-30T10:18:58.446Z,10116
2016-05-30T10:19:58.434Z,10276
2016-05-30T10:20:58.296Z,10348
2016-05-30T10:21:58.642Z,9224
2016-05-30T10:22:58.457Z,8116
2016-05-30T10:23:58.460Z,7472
2016-05-30T10:24:58.463Z,9908
2016-05-30T10:25:59.168Z,9148
2016-05-30T10:26:58.484Z,8264
2016-05-30T10:27:58.174Z,6044
2016-05-30T10:28:58.333Z,6124
2016-05-30T10:29:58.492Z,6256
2016-05-30T10:30:58.495Z,6896
2016-05-30T10:31:58.341Z,9552
2016-05-30T10:32:58.328Z,9860
2016-05-30T10:33:58.487Z,8576
2016-05-30T10:34:58.333Z,8688
2016-05-30T10:35:58.180Z,8828
2016-05-30T10:36:58.526Z,7480
2016-05-30T10:37:58.514Z,6468
2016-05-30T10:38:58.360Z,5684
2016-05-30T10:39:58.534Z,4568
2016-05-30T10:40:58.365Z,6808
2016-05-30T10:41:58.540Z,8316
2016-05-30T10:42:58.542Z,8132
2016-05-30T10:43:58.545Z,7676
2016-05-30T10:44:58.548Z,8772
2016-05-30T10:45:58.394Z,9280
2016-05-30T10:46:58.537Z,10076
2016-05-30T10:47:58.556Z,9772
2016-05-30T10:48:58.574Z,10128
2016-05-30T10:49:58.576Z,10020
2016-05-30T10:50:58.579Z,9196
2016-05-30T10:51:58.505Z,9236
2016-05-30T10:52:58.569Z,9336
2016-05-30T10:53:58.416Z,7732
2016-05-30T10:54:58.591Z,8420
2016-05-30T10:55:58.577Z,8924
2016-05-30T10:56:58.440Z,9044
2016-05-30T10:57:58.287Z,9384
2016-05-30T10:58:58.601Z,9440
2016-05-30T10:59:58.620Z,8260
2016-05-30T11:00:58.606Z,8440
2016-05-30T11:01:58.593Z,8952
2016-05-30T11:02:58.612Z,9452
2016-05-30T11:03:58.630Z,10088
2016-05-30T11:04:58.633Z,10332
2016-05-30T11:05:58.636Z,10040
2016-05-30T11:06:59.606Z,9576
2016-05-30T11:07:58.641Z,8928
2016-05-30T11:08:58.644Z,9048
2016-05-30T11:09:58.489Z,9532
2016-05-30T11:10:58.649Z,9884
2016-05-30T11:11:58.652Z,9724
2016-05-30T11:12:58.514Z,9376
2016-05-30T11:13:58.672Z,9252
2016-05-30T11:14:58.675Z,10120
2016-05-30T11:15:58.678Z,10520
2016-05-30T11:16:58.680Z,10288
2016-05-30T11:17:58.683Z,9512
2016-05-30T11:18:58.686Z,8588
2016-05-30T11:19:58.689Z,8320
2016-05-30T11:20:58.707Z,7984
2016-05-30T11:21:58.538Z,8000
2016-05-30T11:22:58.697Z,7956
2016-05-30T11:23:58.544Z,8004
2016-05-30T11:24:58.577Z,8140
2016-05-30T11:25:58.721Z,8260
2016-05-30T11:26:58.723Z,8664
2016-05-30T11:27:58.757Z,7920
2016-05-30T11:28:58.728Z,8464
2016-05-30T11:29:58.732Z,8436
2016-05-30T11:30:58.750Z,8304
2016-05-30T11:31:58.737Z,8616
2016-05-30T11:32:58.755Z,9096
2016-05-30T11:33:58.758Z,9284
2016-05-30T11:34:58.589Z,9728
2016-05-30T11:35:58.748Z,9824
2016-05-30T11:36:58.766Z,9488
2016-05-30T11:37:58.612Z,9172
2016-05-30T11:38:58.614Z,9104
2016-05-30T11:39:58.790Z,8600
2016-05-30T11:40:58.792Z,8760
2016-05-30T11:41:58.638Z,8128
2016-05-30T11:42:58.797Z,7656
2016-05-30T11:43:58.800Z,7112
2016-05-30T11:44:58.803Z,6936
2016-05-30T11:45:58.805Z,6884
2016-05-30T11:46:58.688Z,7224
2016-05-30T11:47:58.867Z,7192
2016-05-30T11:48:58.765Z,7048
2016-05-30T11:49:58.912Z,7116
2016-05-30T11:50:58.942Z,7180
2016-05-30T11:51:59.514Z,7180
2016-05-30T11:52:58.977Z,7412
2016-05-30T11:53:58.972Z,7840
2016-05-30T11:54:58.997Z,8052
2016-05-30T11:55:59.019Z,8216
2016-05-30T11:56:59.008Z,8424
2016-05-30T11:57:59.014Z,8716
2016-05-30T11:58:59.019Z,8672
2016-05-30T11:59:59.025Z,8736
2016-05-30T12:00:59.029Z,8668
2016-05-30T12:01:59.033Z,8788
2016-05-30T12:02:59.037Z,8548
2016-05-30T12:03:58.885Z,8480
2016-05-30T12:04:59.044Z,8084
2016-05-30T12:05:59.048Z,7708
2016-05-30T12:06:59.083Z,7664
2016-05-30T12:07:59.195Z,7964
2016-05-30T12:08:59.057Z,8764
2016-05-30T12:09:59.076Z,8644
2016-05-30T12:10:59.063Z,7992
2016-05-30T12:11:59.082Z,8156
2016-05-30T12:12:58.803Z,8312
2016-05-30T12:13:59.087Z,8252
2016-05-30T12:14:59.089Z,7688
2016-05-30T12:15:59.108Z,7524
2016-05-30T12:16:59.095Z,7700
2016-05-30T12:17:58.973Z,7632
2016-05-30T12:18:59.117Z,7580
2016-05-30T12:19:59.134Z,7312
2016-05-30T12:20:59.122Z,6108
2016-05-30T12:21:59.375Z,5264
2016-05-30T12:22:59.142Z,5264
2016-05-30T12:23:58.989Z,5312
2016-05-30T12:24:59.148Z,4784
2016-05-30T12:25:59.150Z,4320
2016-05-30T12:26:59.153Z,4080
2016-05-30T12:27:59.172Z,4204
2016-05-30T12:28:58.846Z,4576
2016-05-30T12:29:59.146Z,5200
2016-05-30T12:30:59.164Z,5476
2016-05-30T12:31:59.183Z,5200
2016-05-30T12:32:59.169Z,5184
2016-05-30T12:33:59.032Z,5792
2016-05-30T12:34:59.190Z,6208
2016-05-30T12:35:59.037Z,5616
2016-05-30T12:36:59.743Z,4276
2016-05-30T12:37:59.199Z,3764
2016-05-30T12:38:59.201Z,3092
2016-05-30T12:39:59.188Z,3356
2016-05-30T12:40:59.223Z,3520
2016-05-30T12:41:59.225Z,4216
2016-05-30T12:42:59.212Z,4776
2016-05-30T12:43:59.074Z,4948
2016-05-30T12:44:59.234Z,4244
2016-05-30T12:45:59.220Z,6076
2016-05-30T12:46:59.239Z,6900
2016-05-30T12:47:59.241Z,5776
2016-05-30T12:48:59.088Z,5448
2016-05-30T12:49:59.247Z,4956
2016-05-30T12:50:59.250Z,5096
2016-05-30T12:51:59.408Z,6168
2016-05-30T12:52:59.348Z,7084
2016-05-30T12:53:59.273Z,6220
2016-05-30T12:54:59.275Z,5252
2016-05-30T12:55:59.278Z,4728
2016-05-30T12:56:59.281Z,5120
2016-05-30T12:57:59.269Z,5632
2016-05-30T12:58:59.146Z,5920
2016-05-30T12:59:58.992Z,6436
2016-05-30T13:00:59.291Z,6148
2016-05-30T13:01:59.294Z,6752
2016-05-30T13:02:59.203Z,6944
2016-05-30T13:03:59.299Z,7088
2016-05-30T13:04:59.333Z,5764
2016-05-30T13:05:59.321Z,5156
2016-05-30T13:06:59.230Z,4784
2016-05-30T13:07:59.327Z,4496
2016-05-30T13:08:59.329Z,3900
2016-05-30T13:09:59.176Z,3720
2016-05-30T13:10:59.335Z,3444
2016-05-30T13:11:59.337Z,3536
2016-05-30T13:12:59.355Z,3668
2016-05-30T13:13:59.342Z,4528
2016-05-30T13:14:59.392Z,4380
2016-05-30T13:15:59.207Z,4776
2016-05-30T13:16:59.350Z,4832
2016-05-30T13:17:59.212Z,4540
2016-05-30T13:18:59.371Z,5552
2016-05-30T13:19:59.373Z,5400
2016-05-30T13:20:59.376Z,5296
2016-05-30T13:22:00.301Z,5040
2016-05-30T13:22:59.398Z,4808
2016-05-30T13:23:59.384Z,4480
2016-05-30T13:24:59.403Z,4352
2016-05-30T13:25:59.078Z,4320
2016-05-30T13:26:59.392Z,3924
2016-05-30T13:27:59.411Z,3672
2016-05-30T13:28:59.398Z,3924
2016-05-30T13:29:59.400Z,3564
2016-05-30T13:30:59.403Z,3320
2016-05-30T13:31:59.406Z,3840
2016-05-30T13:32:59.408Z,4292
2016-05-30T13:33:59.428Z,4604
2016-05-30T13:34:59.430Z,5948
2016-05-30T13:35:59.276Z,6660
2016-05-30T13:36:59.280Z,6096
2016-05-30T13:37:59.282Z,4892
2016-05-30T13:38:59.457Z,4128
2016-05-30T13:39:59.303Z,3736
2016-05-30T13:40:59.446Z,3864
2016-05-30T13:41:59.449Z,3996
2016-05-30T13:43:01.843Z,3984
2016-05-30T13:43:59.454Z,3820